Jepson Prairie Reserve, California Weather observations

Data are for 10 minute period ending at time listed.
 Day   Time   Solar   Ave.   Ave.  Ave.  Vector  Max.   Baro.   Total    
  of    of     Rad.   Air    Rel.  Wind   Wind   Wind  Press.  Precip.   
Year   Day            Temp.  Hum.  Speed  Dir.   Gust                    
2018   (PST)  Kw/m2    F      %     mph   deg.    mph    mb.     in.     
-------------------------------------------------------------------------
 201   16:10   0.52   86.0    34   22.3   231    27.8   1010.1    0.00 
 201   16:20   0.49   85.8    34   23.4   231    28.3   1010.2    0.00 
 201   16:30   0.46   85.4    35   21.7   232    27.9   1010.2    0.00 
 201   16:40   0.43   85.6    35   19.8   237    25.1   1010.3    0.00 
 201   16:50   0.40   84.9    37   19.3   232    24.6   1010.3    0.00 
 201   17:00   0.37   84.4    37   20.3   236    26.1   1010.3    0.00 
 201   17:10   0.32   83.3    38   22.1   230    25.9   1010.2    0.00 
 201   17:20   0.31   82.9    38   21.7   230    26.5   1010.1    0.00 
 201   17:30   0.27   82.2    39   20.3   232    25.7   1010.2    0.00 
 201   17:40   0.24   81.7    40   19.2   234    23.5   1010.3    0.00 
 201   17:50   0.22   81.6    40   17.1   231    22.6   1010.3    0.00 
 201   18:00   0.19   80.9    40   18.3   231    23.0   1010.4    0.00 
 201   18:10   0.16   80.0    41   17.6   233    21.3   1010.4    0.00 
 201   18:20   0.13   79.2    42   17.3   232    21.6   1010.4    0.00 
 201   18:30   0.11   78.5    43   16.1   232    20.9   1010.5    0.00 
 201   18:40   0.09   77.5    44   18.2   232    22.2   1010.6    0.00 
 201   18:50   0.06   76.6    45   15.7   236    19.4   1010.6    0.00 
 201   19:00   0.04   75.6    46   16.8   233    21.2   1010.6    0.00 
 201   19:10   0.02   74.6    46   18.3   228    23.2   1010.5    0.00 
 201   19:20   0.01   73.7    46   17.8   230    23.8   1010.6    0.00 
 201   19:30   0.01   72.8    47   15.2   228    20.8   1010.7    0.00 
 201   19:40   0.00   72.1    48   14.4   231    19.2   1010.7    0.00 
 201   19:50   0.00   71.2    50   16.3   227    21.3   1010.7    0.00 
 201   20:00   0.00   70.6    51   15.7   224    22.1   1010.8    0.00 
 201   20:10   0.00   70.5    52   18.8   225    25.0   1010.7    0.00 
 201   20:20   0.00   70.1    53   18.2   226    24.9   1010.8    0.00 
 201   20:30   0.00   69.7    54   18.3   226    22.7   1010.8    0.00 
 201   20:40   0.00   69.2    56   18.7   226    24.3   1010.9    0.00 
 201   20:50   0.00   68.7    57   18.8   222    26.1   1011.0    0.00 
 201   21:00   0.00   68.3    58   18.5   229    23.7   1010.9    0.00 
 201   21:10   0.00   68.3    58   19.3   233    26.0   1010.9    0.00 
 201   21:20   0.00   68.5    58   21.5   234    25.7   1010.9    0.00 
 201   21:30   0.00   68.5    59   21.1   234    27.3   1010.9    0.00 
 201   21:40   0.00   68.5    60   21.8   233    29.2   1010.8    0.00 
 201   21:50   0.00   68.1    61   20.9   235    27.5   1010.7    0.00 
 201   22:00   0.00   67.6    62   19.4   234    25.2   1010.6    0.00 
 201   22:10   0.00   67.4    63   20.7   232    26.5   1010.4    0.00 
 201   22:20   0.00   67.4    63   22.3   232    30.0   1010.4    0.00 
 201   22:30   0.00   67.9    62   21.4   230    27.2   1010.3    0.00 
 201   22:40   0.00   67.9    62   21.7   224    27.2   1010.4    0.00 
 201   22:50   0.00   67.8    63   23.8   224    30.4   1010.4    0.00 
 201   23:00   0.00   68.1    62   23.7   224    28.8   1010.2    0.00 
 201   23:10   0.00   68.1    62   24.1   223    28.7   1010.3    0.00 
 201   23:20   0.00   67.9    62   23.9   223    29.5   1010.2    0.00 
 201   23:30   0.00   67.5    63   21.8   226    28.6   1010.4    0.00 
 201   23:40   0.00   67.4    63   23.1   222    28.9   1010.4    0.00 
 201   23:50   0.00   67.3    63   24.6   222    31.6   1010.5    0.00 
 202    0:00   0.00   67.6    61   23.9   220    31.6   1010.5    0.00 
 202    0:10   0.00   67.2    61   25.1   222    31.2   1010.5    0.00 
 202    0:20   0.00   67.3    60   23.3   224    29.0   1010.5    0.00 
 202    0:30   0.00   67.1    59   22.8   226    28.6   1010.6    0.00 
 202    0:40   0.00   67.0    59   23.5   222    29.7   1010.7    0.00 
 202    0:50   0.00   66.6    59   22.8   219    28.4   1010.8    0.00 
 202    1:00   0.00   66.2    60   22.4   218    27.8   1011.0    0.00 
 202    1:10   0.00   65.7    62   24.0   219    32.0   1011.2    0.00 
 202    1:20   0.00   65.2    64   21.7   223    28.1   1011.3    0.00 
 202    1:30   0.00   65.0    65   22.0   228    28.7   1011.4    0.00 
 202    1:40   0.00   64.6    67   22.1   230    28.0   1011.4    0.00 
 202    1:50   0.00   64.6    67   21.3   228    28.8   1011.4    0.00 
 202    2:00   0.00   64.6    66   21.8   223    28.3   1011.4    0.00 
 202    2:10   0.00   64.2    67   21.9   220    27.4   1011.5    0.00 
 202    2:20   0.00   63.8    69   21.9   222    28.1   1011.5    0.00 
 202    2:30   0.00   63.6    70   22.2   223    28.1   1011.5    0.00 
 202    2:40   0.00   63.7    69   22.5   222    27.6   1011.5    0.00 
 202    2:50   0.00   63.5    70   23.5   223    29.7   1011.5    0.00 
 202    3:00   0.00   63.2    71   22.8   222    28.4   1011.5    0.00 
 202    3:10   0.00   63.2    70   20.6   224    26.3   1011.5    0.00 
 202    3:20   0.00   63.4    70   20.6   223    27.5   1011.6    0.00 
 202    3:30   0.00   63.3    72   22.7   221    28.3   1011.6    0.00 
 202    3:40   0.00   63.2    71   22.2   222    28.7   1011.6    0.00 
 202    3:50   0.00   63.3    70   22.3   219    27.2   1011.6    0.00 
 202    4:00   0.00   63.5    70   21.9   221    27.2   1011.7    0.00 
 202    4:10   0.00   63.3    71   21.4   220    29.0   1011.7    0.00 
 202    4:20   0.00   63.1    73   21.0   222    26.2   1011.7    0.00 
 202    4:30   0.00   62.9    74   20.2   224    25.3   1011.7    0.00 
 202    4:40   0.00   62.7    74   21.7   220    27.0   1011.9    0.00 
 202    4:50   0.00   62.7    73   20.2   217    25.0   1012.0    0.00 
 202    5:00   0.00   62.7    71   20.1   215    25.6   1012.1    0.00 
 202    5:10   0.01   62.7    71   21.3   215    25.5   1012.1    0.00 
 202    5:20   0.01   63.0    71   21.9   214    28.1   1012.2    0.00 
 202    5:30   0.03   63.2    71   22.5   216    27.6   1012.3    0.00 
 202    5:40   0.05   63.1    74   21.7   219    26.6   1012.3    0.00 
 202    5:50   0.08   63.3    74   19.0   220    23.8   1012.4    0.00 
 202    6:00   0.10   63.8    73   19.0   219    23.2   1012.5    0.00 
 202    6:10   0.13   64.4    72   18.8   222    24.1   1012.5    0.00 
 202    6:20   0.16   65.2    69   18.9   219    25.7   1012.6    0.00 
 202    6:30   0.19   65.8    68   18.4   218    24.2   1012.8    0.00 
 202    6:40   0.22   66.6    67   19.2   217    25.4   1012.8    0.00 
 202    6:50   0.25   67.8    64   21.1   217    27.6   1012.9    0.00 
 202    7:00   0.28   68.2    64   22.5   219    28.2   1013.1    0.00 
 202    7:10   0.31   68.6    63   23.4   221    29.1   1013.2    0.00 
 202    7:20   0.34   69.2    62   21.4   223    26.8   1013.3    0.00 
 202    7:30   0.37   69.5    62   20.8   224    26.5   1013.2    0.00 
 202    7:40   0.41   69.5    62   22.8   223    29.8   1013.2    0.00 
 202    7:50   0.43   70.2    61   21.7   228    28.3   1013.2    0.00 
 202    8:00   0.30   69.9    61   21.4   226    26.6   1013.3    0.00 
 202    8:10   0.39   69.9    61   22.4   225    27.6   1013.3    0.00 
 202    8:20   0.48   70.8    60   21.1   226    26.5   1013.4    0.00 
 202    8:30   0.36   71.3    59   22.8   222    28.0   1013.4    0.00 
 202    8:40   0.58   72.7    56   21.5   221    27.0   1013.5    0.00 
 202    8:50   0.59   74.1    52   23.8   220    29.1   1013.4    0.00 
 202    9:00   0.62   75.0    50   22.3   222    27.7   1013.5    0.00 
 202    9:10   0.64   76.1    47   22.2   219    28.4   1013.4    0.00 
 202    9:20   0.67   76.6    45   23.3   217    29.1   1013.4    0.00 
 202    9:30   0.69   77.6    44   22.5   215    27.4   1013.4    0.00 
 202    9:40   0.71   78.5    42   22.2   214    28.8   1013.4    0.00 
 202    9:50   0.73   79.0    41   23.2   210    27.4   1013.4    0.00 
 202   10:00   0.74   79.7    39   23.7   210    28.5   1013.4    0.00 
 202   10:10   0.74   81.0    37   22.6   213    27.0   1013.4    0.00 
 202   10:20   0.69   81.5    36   22.9   209    29.7   1013.5    0.00 
 202   10:30   0.79   81.8    34   23.6   210    30.1   1013.6    0.00 
 202   10:40   0.82   82.2    34   23.8   213    29.3   1013.4    0.00 
 202   10:50   0.85   82.8    33   22.7   214    29.1   1013.4    0.00 
 202   11:00   0.79   83.1    33   22.6   212    27.9   1013.4    0.00 
 202   11:10   0.80   83.5    32   23.6   215    29.1   1013.4    0.00 
 202   11:20   0.88   83.8    33   23.1   214    29.3   1013.4    0.00 
 202   11:30   0.81   84.0    33   23.3   215    29.1   1013.3    0.00 
 202   11:40   0.90   85.0    32   23.0   213    28.8   1013.3    0.00 
 202   11:50   0.86   86.0    30   22.4   218    29.3   1013.3    0.00 
 202   12:00   0.91   86.4    31   24.1   212    28.7   1013.3    0.00 
 202   12:10   0.95   87.2    30   24.6   214    30.6   1013.2    0.00 
 202   12:20   0.75   86.4    30   25.4   214    32.1   1013.1    0.00 
 202   12:30   0.98   87.4    30   24.5   215    31.6   1013.1    0.00 
 202   12:40   0.93   87.1    32   24.7   216    31.6   1012.9    0.00 
 202   12:50   0.89   88.4    30   23.5   219    31.0   1012.8    0.00 
 202   13:00   0.87   88.1    31   24.6   218    30.3   1012.6    0.00 
 202   13:10   0.87   89.0    31   23.6   215    28.7   1012.5    0.00 
 202   13:20   0.86   89.5    30   24.7   221    31.6   1012.4    0.00 
 202   13:30   0.84   90.1    30   24.3   218    31.3   1012.4    0.00 
 202   13:40   0.83   89.9    31   23.7   220    30.4   1012.3    0.00 
 202   13:50   0.82   89.7    32   24.8   218    30.2   1012.3    0.00 
 202   14:00   0.81   89.9    32   23.8   220    31.2   1012.3    0.00 
 202   14:10   0.79   89.7    32   25.1   221    30.6   1012.2    0.00 
 202   14:20   0.77   90.2    32   24.7   221    29.6   1012.0    0.00 
 202   14:30   0.75   90.0    32   24.9   226    29.8   1011.8    0.00 
 202   14:40   0.73   90.0    32   24.5   224    29.3   1011.7    0.00 
 202   14:50   0.71   90.5    31   23.6   225    29.8   1011.7    0.00 
 202   15:00   0.69   89.7    32   24.2   221    30.6   1011.6    0.00 
 202   15:10   0.67   89.6    32   24.7   223    30.2   1011.6    0.00 
 202   15:20   0.64   89.8    31   23.7   221    30.1   1011.6    0.00 
 202   15:30   0.62   90.0    31   23.5   226    29.0   1011.6    0.00 
 202   15:40   0.59   89.4    32   25.2   221    30.0   1011.4    0.00 
 202   15:50   0.56   88.6    32   24.9   225    30.2   1011.5    0.00 
 202   16:00   0.54   87.8    33   24.2   222    29.4   1011.6    0.00 

Return to Jepson Prairie Reserve graphs page.


Western Regional Climate Center,wrcc@dri.edu